Time;durP1;ratioP1;P1;durP2;ratioP2;P2;SDS_P1;SDS_P2;PMS_P1;PMS_P2;Temp;Humidity;BMP_temperature;BMP_pressure;BME280_temperature;BME280_humidity;BME280_pressure;Samples;Min_cycle;Max_cycle;Signal;HPM_P1;HPM_P2
2023/09/30 00:01:10;;;;;;;;;;;12.60;76.20;;;;;;4157166;28;19913;-86
2023/09/30 00:03:10;;;;;;;;;;;12.50;76.20;;;;;;4138040;28;20434;-86
2023/09/30 00:05:20;;;;;;;;;;;12.50;76.20;;;;;;4137964;28;19925;-86
2023/09/30 00:07:21;;;;;;;;;;;12.50;76.30;;;;;;4123546;28;20392;-86
2023/09/30 00:09:41;;;;;;;;;;;12.50;77.10;;;;;;4154446;28;20060;-86
2023/09/30 00:11:42;;;;;;;;;;;12.50;76.50;;;;;;4136514;28;19914;-86
2023/09/30 00:13:43;;;;;;;;;;;12.50;76.50;;;;;;4140135;28;19914;-86
2023/09/30 00:15:43;;;;;;;;;;;12.50;76.60;;;;;;4138618;28;19913;-86
2023/09/30 00:18:07;;;;;;;;;;;12.60;76.70;;;;;;4158129;28;20472;-86
2023/09/30 00:20:28;;;;;;;;;;;12.50;76.60;;;;;;4155230;28;20057;-86
2023/09/30 00:22:49;;;;;;;;;;;12.60;76.70;;;;;;4154528;28;19932;-86
2023/09/30 00:25:10;;;;;;;;;;;12.60;77.10;;;;;;4139869;28;20287;-86
2023/09/30 00:27:30;;;;;;;;;;;12.60;76.90;;;;;;4153872;28;20287;-86
2023/09/30 00:30:03;;;;;;;;;;;12.60;76.90;;;;;;4138660;28;19933;-85
2023/09/30 00:33:01;;;;;;;;;;;12.60;76.80;;;;;;4154819;28;19932;-86
2023/09/30 00:35:25;;;;;;;;;;;12.60;76.70;;;;;;4152248;28;19924;-86
2023/09/30 00:37:46;;;;;;;;;;;12.60;76.80;;;;;;4162253;28;19976;-85
2023/09/30 00:40:07;;;;;;;;;;;12.60;76.70;;;;;;4229818;22;20334;-90
2023/09/30 00:43:05;;;;;;;;;;;;;;;;;;;;;
2023/09/30 00:45:24;;;;;;;;;;;12.60;76.70;;;;;;4154260;28;19917;-90
2023/09/30 00:51:11;;;;;;;;;;;12.50;76.70;;;;;;4085270;29;20308;-91
2023/09/30 00:56:49;;;;;;;;;;;12.60;76.80;;;;;;4039263;29;19970;-89
2023/09/30 00:59:16;;;;;;;;;;;12.60;76.70;;;;;;4026357;29;19928;-92
2023/09/30 01:02:24;;;;;;;;;;;12.60;76.80;;;;;;3981839;29;19927;-91
2023/09/30 01:22:55;;;;;;;;;;;12.60;76.50;;;;;;3877820;30;20010;-91
2023/09/30 01:28:36;;;;;;;;;;;;;;;;;;;;;
2023/09/30 01:49:26;;;;;;;;;;;12.40;76.60;;;;;;4151694;28;20512;-86
2023/09/30 01:51:31;;;;;;;;;;;12.40;76.60;;;;;;4136208;28;20024;-84
2023/09/30 01:53:34;;;;;;;;;;;12.50;76.70;;;;;;4135626;28;20559;-86
2023/09/30 01:55:35;;;;;;;;;;;12.50;76.80;;;;;;4154414;28;19920;-85
2023/09/30 01:57:36;;;;;;;;;;;12.50;76.70;;;;;;4156580;28;19913;-85
2023/09/30 01:59:37;;;;;;;;;;;12.40;76.60;;;;;;4155239;28;19925;-85
2023/09/30 02:01:41;;;;;;;;;;;12.40;76.70;;;;;;4124792;28;20065;-86
2023/09/30 02:03:42;;;;;;;;;;;12.40;76.70;;;;;;4121649;28;19922;-85
2023/09/30 02:05:48;;;;;;;;;;;12.40;76.80;;;;;;4152400;28;20000;-85
2023/09/30 02:08:08;;;;;;;;;;;12.50;76.80;;;;;;4154847;28;20424;-85
2023/09/30 02:10:30;;;;;;;;;;;12.50;76.80;;;;;;4157092;28;19916;-85
2023/09/30 02:12:50;;;;;;;;;;;12.40;76.80;;;;;;4158420;28;19974;-85
2023/09/30 02:15:13;;;;;;;;;;;12.40;76.70;;;;;;4145103;28;20303;-85
2023/09/30 02:17:34;;;;;;;;;;;12.40;76.80;;;;;;4142149;28;20000;-86
2023/09/30 02:19:54;;;;;;;;;;;12.30;76.70;;;;;;4155590;28;19967;-86
2023/09/30 02:22:18;;;;;;;;;;;12.30;76.70;;;;;;4156598;28;19925;-86
2023/09/30 02:24:40;;;;;;;;;;;12.40;76.70;;;;;;4155238;28;19958;-86
2023/09/30 02:27:03;;;;;;;;;;;12.50;76.90;;;;;;4141718;28;19966;-86
2023/09/30 02:29:27;;;;;;;;;;;12.40;76.90;;;;;;4144552;28;19957;-86
2023/09/30 02:31:48;;;;;;;;;;;12.30;76.70;;;;;;4154791;28;19921;-86
2023/09/30 02:34:08;;;;;;;;;;;12.30;76.80;;;;;;4141488;28;20016;-86
2023/09/30 02:36:29;;;;;;;;;;;12.40;76.90;;;;;;4155315;28;20017;-85
2023/09/30 02:38:49;;;;;;;;;;;12.40;76.90;;;;;;4153422;28;20016;-86
2023/09/30 02:41:10;;;;;;;;;;;12.40;76.90;;;;;;4140980;28;19956;-86
2023/09/30 02:43:11;;;;;;;;;;;12.40;76.80;;;;;;4140161;28;19914;-85
2023/09/30 02:45:12;;;;;;;;;;;12.30;76.70;;;;;;4141567;28;19940;-85
2023/09/30 02:47:12;;;;;;;;;;;12.40;76.80;;;;;;4126432;28;19914;-86
2023/09/30 02:49:15;;;;;;;;;;;12.30;76.70;;;;;;4143981;28;19926;-85
2023/09/30 02:51:16;;;;;;;;;;;12.30;76.80;;;;;;4141513;28;20395;-86
2023/09/30 02:53:16;;;;;;;;;;;12.40;76.80;;;;;;4141820;28;20004;-86
2023/09/30 02:55:17;;;;;;;;;;;12.30;76.80;;;;;;4157547;28;19917;-85
2023/09/30 02:57:19;;;;;;;;;;;12.30;76.70;;;;;;4140588;28;19917;-85
2023/09/30 02:59:22;;;;;;;;;;;12.30;76.80;;;;;;4169846;28;19945;-86
2023/09/30 03:01:26;;;;;;;;;;;12.30;76.80;;;;;;4164427;28;19906;-85
2023/09/30 03:03:27;;;;;;;;;;;12.40;77.00;;;;;;4128993;28;20369;-86
2023/09/30 03:05:33;;;;;;;;;;;12.30;76.90;;;;;;4154348;28;19921;-86
2023/09/30 03:07:45;;;;;;;;;;;12.30;76.90;;;;;;4143069;28;20319;-86
2023/09/30 03:09:46;;;;;;;;;;;12.40;77.00;;;;;;4141652;28;19913;-86
2023/09/30 03:11:48;;;;;;;;;;;12.30;76.90;;;;;;4141063;28;20339;-86
2023/09/30 03:13:55;;;;;;;;;;;12.40;77.10;;;;;;4126467;28;19922;-85
2023/09/30 03:15:58;;;;;;;;;;;12.30;77.00;;;;;;4140049;28;19944;-86
2023/09/30 03:18:03;;;;;;;;;;;12.30;76.90;;;;;;4157954;28;19917;-86
2023/09/30 03:20:10;;;;;;;;;;;12.40;77.00;;;;;;4138815;28;19921;-86
2023/09/30 03:22:11;;;;;;;;;;;12.30;76.80;;;;;;4123401;28;20029;-86
2023/09/30 03:24:21;;;;;;;;;;;12.30;76.90;;;;;;4127675;28;20048;-86
2023/09/30 03:26:22;;;;;;;;;;;12.10;77.40;;;;;;4157221;28;19917;-87
2023/09/30 03:28:22;;;;;;;;;;;12.20;76.70;;;;;;4140419;28;19920;-86
2023/09/30 03:30:24;;;;;;;;;;;12.30;76.80;;;;;;4123208;28;19914;-86
2023/09/30 03:32:25;;;;;;;;;;;12.20;76.70;;;;;;4141184;28;20295;-86
2023/09/30 03:37:26;;;;;;;;;;;12.20;76.60;;;;;;4100979;28;19914;-85
2023/09/30 03:39:28;;;;;;;;;;;12.20;76.60;;;;;;4092795;28;19918;-85
2023/09/30 03:41:35;;;;;;;;;;;12.20;76.60;;;;;;4087573;29;19946;-85
2023/09/30 03:43:40;;;;;;;;;;;12.20;76.60;;;;;;4100377;28;19915;-85
2023/09/30 03:46:01;;;;;;;;;;;12.20;76.60;;;;;;4132381;28;19946;-85
2023/09/30 03:48:04;;;;;;;;;;;12.20;76.60;;;;;;4112614;28;20000;-85
2023/09/30 03:50:26;;;;;;;;;;;12.00;76.60;;;;;;4110882;28;20016;-85
2023/09/30 03:52:47;;;;;;;;;;;12.10;76.60;;;;;;4107861;28;20133;-86
2023/09/30 03:55:09;;;;;;;;;;;12.10;76.60;;;;;;4119166;28;19926;-86
2023/09/30 03:57:30;;;;;;;;;;;12.10;76.70;;;;;;4109063;28;20005;-86
2023/09/30 03:59:52;;;;;;;;;;;12.10;76.70;;;;;;4109631;28;19988;-86
2023/09/30 04:02:12;;;;;;;;;;;12.00;76.60;;;;;;4090990;28;19930;-85
2023/09/30 04:04:34;;;;;;;;;;;12.00;76.70;;;;;;4095172;28;19921;-86
2023/09/30 04:06:54;;;;;;;;;;;12.10;76.90;;;;;;4109060;28;19918;-86
2023/09/30 04:09:16;;;;;;;;;;;11.90;77.00;;;;;;4108608;28;19922;-86
2023/09/30 04:11:41;;;;;;;;;;;12.00;77.10;;;;;;4108218;28;20005;-86
2023/09/30 04:14:02;;;;;;;;;;;12.00;77.10;;;;;;4149924;28;19905;-86
2023/09/30 04:16:28;;;;;;;;;;;12.00;77.30;;;;;;4174521;28;19924;-86
2023/09/30 04:18:50;;;;;;;;;;;12.00;77.30;;;;;;4179905;28;19921;-86
2023/09/30 04:21:13;;;;;;;;;;;12.00;77.20;;;;;;4172380;28;19961;-86
2023/09/30 04:23:36;;;;;;;;;;;11.90;77.30;;;;;;4178005;28;19901;-86
2023/09/30 04:25:57;;;;;;;;;;;12.00;77.30;;;;;;4181606;28;19905;-85
2023/09/30 04:28:20;;;;;;;;;;;12.00;77.50;;;;;;4181713;28;19905;-85
2023/09/30 04:30:44;;;;;;;;;;;12.00;77.40;;;;;;4163758;28;19922;-85
2023/09/30 04:32:45;;;;;;;;;;;11.90;77.40;;;;;;4175208;28;19905;-85
2023/09/30 04:34:46;;;;;;;;;;;12.10;77.50;;;;;;4152174;28;20286;-86
2023/09/30 04:36:47;;;;;;;;;;;12.10;77.30;;;;;;4121811;28;20000;-86
2023/09/30 04:39:08;;;;;;;;;;;12.00;77.30;;;;;;4155061;28;20016;-86
2023/09/30 04:41:25;;;;;;;;;;;12.10;77.40;;;;;;4136499;28;19957;-86
2023/09/30 04:43:46;;;;;;;;;;;12.10;77.20;;;;;;4141547;28;19924;-86
2023/09/30 04:46:09;;;;;;;;;;;12.10;77.30;;;;;;4156477;28;19917;-85
2023/09/30 04:48:31;;;;;;;;;;;12.00;77.10;;;;;;4141758;28;19921;-86
2023/09/30 04:50:52;;;;;;;;;;;12.00;77.10;;;;;;4140437;28;19933;-86
2023/09/30 04:53:13;;;;;;;;;;;11.90;77.10;;;;;;4141817;28;19914;-86
2023/09/30 04:55:33;;;;;;;;;;;11.90;77.10;;;;;;4143443;28;19913;-86
2023/09/30 04:57:54;;;;;;;;;;;11.90;77.10;;;;;;4157132;28;19927;-86
2023/09/30 05:00:17;;;;;;;;;;;11.90;77.10;;;;;;4154557;28;23081;-85
2023/09/30 05:02:41;;;;;;;;;;;11.90;77.10;;;;;;4137659;28;19967;-85
2023/09/30 05:04:54;;;;;;;;;;;12.00;77.40;;;;;;4153694;28;19921;-86
2023/09/30 05:06:57;;;;;;;;;;;11.80;77.20;;;;;;4123907;28;19918;-86
2023/09/30 05:11:08;;;;;;;;;;;11.90;77.30;;;;;;4273012;23;20028;-86
2023/09/30 05:13:26;;;;;;;;;;;11.90;77.30;;;;;;4152357;28;20448;-86
2023/09/30 05:15:29;;;;;;;;;;;11.80;77.10;;;;;;4132901;28;19922;-85
2023/09/30 05:18:04;;;;;;;;;;;11.90;77.10;;;;;;4135701;28;19985;-86
2023/09/30 05:20:06;;;;;;;;;;;11.80;77.00;;;;;;4148946;28;19933;-86
2023/09/30 05:22:07;;;;;;;;;;;11.80;77.00;;;;;;4166075;28;20161;-86
2023/09/30 05:24:08;;;;;;;;;;;11.80;77.00;;;;;;4121841;28;20402;-86
2023/09/30 05:26:09;;;;;;;;;;;11.80;77.00;;;;;;4117660;28;20542;-86
2023/09/30 05:28:17;;;;;;;;;;;11.70;77.20;;;;;;4134674;28;19945;-86
2023/09/30 05:30:20;;;;;;;;;;;11.80;77.10;;;;;;4425387;23;20004;-86
2023/09/30 05:32:21;;;;;;;;;;;11.80;77.10;;;;;;4145113;28;20008;-86
2023/09/30 05:34:58;;;;;;;;;;;11.70;77.00;;;;;;4139846;28;19922;-86
2023/09/30 05:37:14;;;;;;;;;;;11.60;77.00;;;;;;4091635;28;19925;-86
2023/09/30 05:39:19;;;;;;;;;;;11.70;77.20;;;;;;4094678;28;19927;-86
2023/09/30 05:41:20;;;;;;;;;;;11.70;77.40;;;;;;4097143;28;19961;-87
2023/09/30 05:43:47;;;;;;;;;;;11.70;77.50;;;;;;4095040;28;20572;-86
2023/09/30 05:46:09;;;;;;;;;;;11.70;77.50;;;;;;4096767;28;19922;-85
2023/09/30 05:48:10;;;;;;;;;;;11.70;77.50;;;;;;4104926;28;19914;-86
2023/09/30 05:50:15;;;;;;;;;;;11.60;77.60;;;;;;4108637;28;19914;-86
2023/09/30 05:52:16;;;;;;;;;;;11.70;77.70;;;;;;4107458;28;19929;-86
2023/09/30 05:54:19;;;;;;;;;;;11.70;77.70;;;;;;4107552;28;20035;-86
2023/09/30 05:56:20;;;;;;;;;;;11.70;77.70;;;;;;4106523;28;19974;-86
2023/09/30 05:58:21;;;;;;;;;;;11.70;77.70;;;;;;4108165;28;19981;-86
2023/09/30 06:03:06;;;;;;;;;;;11.70;77.60;;;;;;4107286;28;19970;-86
2023/09/30 06:08:32;;;;;;;;;;;11.70;77.60;;;;;;4076246;29;20018;-86
2023/09/30 06:10:46;;;;;;;;;;;11.70;77.70;;;;;;4070922;29;20537;-85
2023/09/30 06:12:47;;;;;;;;;;;11.70;77.80;;;;;;4068580;29;20046;-86
2023/09/30 06:14:48;;;;;;;;;;;11.70;77.90;;;;;;4084134;28;20004;-86
2023/09/30 06:16:49;;;;;;;;;;;11.70;77.90;;;;;;4070534;29;19922;-88
2023/09/30 06:19:25;;;;;;;;;;;11.90;78.30;;;;;;4089024;28;20056;-88
2023/09/30 06:21:29;;;;;;;;;;;11.80;78.20;;;;;;4090433;28;20058;-88
2023/09/30 06:23:32;;;;;;;;;;;11.80;78.50;;;;;;4088515;28;19973;-87
2023/09/30 06:25:33;;;;;;;;;;;11.90;78.80;;;;;;4091552;28;19914;-87
2023/09/30 06:28:04;;;;;;;;;;;11.90;78.90;;;;;;4093570;28;19993;-88
2023/09/30 06:30:06;;;;;;;;;;;11.90;78.90;;;;;;4134683;22;20495;-88
2023/09/30 06:32:43;;;;;;;;;;;11.90;79.10;;;;;;4174065;28;19920;-88
2023/09/30 06:34:44;;;;;;;;;;;12.00;79.00;;;;;;4192284;28;20405;-88
2023/09/30 06:36:45;;;;;;;;;;;12.00;79.40;;;;;;4166257;28;19917;-89
2023/09/30 06:38:50;;;;;;;;;;;12.10;79.30;;;;;;4154358;28;19932;-88
2023/09/30 06:40:51;;;;;;;;;;;12.20;79.40;;;;;;4171613;28;19981;-88
2023/09/30 06:42:58;;;;;;;;;;;12.20;79.60;;;;;;4139360;28;20386;-88
2023/09/30 06:45:17;;;;;;;;;;;12.20;79.80;;;;;;4169677;28;19912;-89
2023/09/30 06:47:18;;;;;;;;;;;12.30;80.10;;;;;;4169587;28;19920;-88
2023/09/30 06:49:19;;;;;;;;;;;12.30;79.90;;;;;;4142504;28;19922;-89
2023/09/30 06:51:20;;;;;;;;;;;12.40;80.20;;;;;;4172092;28;19928;-90
2023/09/30 06:53:23;;;;;;;;;;;12.40;80.20;;;;;;4137600;28;19940;-89
2023/09/30 06:55:27;;;;;;;;;;;12.50;80.00;;;;;;4138502;28;19973;-88
2023/09/30 06:57:30;;;;;;;;;;;12.50;80.10;;;;;;4167424;28;19920;-88
2023/09/30 06:59:34;;;;;;;;;;;12.70;80.20;;;;;;4150569;28;19928;-89
2023/09/30 07:01:34;;;;;;;;;;;12.60;80.30;;;;;;4154494;28;19921;-88
2023/09/30 07:03:41;;;;;;;;;;;12.80;80.30;;;;;;4142399;28;19976;-88
2023/09/30 07:05:45;;;;;;;;;;;12.80;80.20;;;;;;4171001;28;19917;-89
2023/09/30 07:08:00;;;;;;;;;;;13.00;80.30;;;;;;4140604;28;20316;-90
2023/09/30 07:10:04;;;;;;;;;;;13.00;80.40;;;;;;4151259;28;19916;-89
2023/09/30 07:12:04;;;;;;;;;;;13.00;80.30;;;;;;4141280;28;21508;-88
2023/09/30 07:14:12;;;;;;;;;;;13.10;80.30;;;;;;4140352;28;19914;-88
2023/09/30 07:16:13;;;;;;;;;;;13.10;80.60;;;;;;4128257;28;20136;-89
2023/09/30 07:18:14;;;;;;;;;;;13.30;80.70;;;;;;4168158;28;19953;-89
2023/09/30 07:20:14;;;;;;;;;;;13.20;80.60;;;;;;4147765;28;19917;-89
2023/09/30 07:22:15;;;;;;;;;;;13.30;80.60;;;;;;4143044;28;19991;-89
2023/09/30 07:24:23;;;;;;;;;;;13.40;80.50;;;;;;4141136;28;19914;-90
2023/09/30 07:26:29;;;;;;;;;;;13.50;80.70;;;;;;4133360;28;19918;-89
2023/09/30 07:28:31;;;;;;;;;;;13.60;80.70;;;;;;4136531;28;19981;-88
2023/09/30 07:30:35;;;;;;;;;;;13.60;80.40;;;;;;4139088;28;20358;-89
2023/09/30 07:32:36;;;;;;;;;;;13.70;80.30;;;;;;4155084;28;19974;-89
2023/09/30 07:34:37;;;;;;;;;;;13.60;80.20;;;;;;4155950;28;19912;-88
2023/09/30 07:36:40;;;;;;;;;;;13.70;80.30;;;;;;4146059;28;19921;-89
2023/09/30 07:38:43;;;;;;;;;;;13.90;80.30;;;;;;4183849;28;19983;-88
2023/09/30 07:40:50;;;;;;;;;;;13.90;80.10;;;;;;4148465;28;19960;-89
2023/09/30 07:42:51;;;;;;;;;;;13.90;79.90;;;;;;4154397;28;19917;-89
2023/09/30 07:44:52;;;;;;;;;;;14.00;80.00;;;;;;4135814;28;19968;-88
2023/09/30 07:46:56;;;;;;;;;;;14.10;80.10;;;;;;4184349;22;20032;-87
2023/09/30 07:49:00;;;;;;;;;;;14.10;79.90;;;;;;4098698;28;20041;-90
2023/09/30 07:51:12;;;;;;;;;;;14.20;80.00;;;;;;4097545;28;19922;-90
2023/09/30 07:53:33;;;;;;;;;;;14.30;80.00;;;;;;4148948;28;19921;-89
2023/09/30 07:55:34;;;;;;;;;;;14.30;80.10;;;;;;4123005;28;19996;-88
2023/09/30 07:57:36;;;;;;;;;;;14.40;80.10;;;;;;4135154;28;20015;-89
2023/09/30 07:59:39;;;;;;;;;;;14.40;79.90;;;;;;4126952;28;21841;-90
2023/09/30 08:02:06;;;;;;;;;;;14.50;79.80;;;;;;4130705;28;20562;-89
2023/09/30 08:08:26;;;;;;;;;;;14.70;79.10;;;;;;2070110;22;19932;-89
2023/09/30 08:10:29;;;;;;;;;;;14.90;78.80;;;;;;4157854;28;19921;-89
2023/09/30 08:12:32;;;;;;;;;;;14.80;78.40;;;;;;4157171;28;20097;-89
2023/09/30 08:14:36;;;;;;;;;;;14.90;78.60;;;;;;4168470;28;19946;-90
2023/09/30 08:16:40;;;;;;;;;;;14.90;78.40;;;;;;4157373;28;19917;-89
2023/09/30 08:18:49;;;;;;;;;;;15.00;78.30;;;;;;4156715;28;20597;-91
2023/09/30 08:20:50;;;;;;;;;;;15.00;78.90;;;;;;4137818;28;20519;-90
2023/09/30 08:22:51;;;;;;;;;;;15.20;77.70;;;;;;4138945;28;19924;-89
2023/09/30 08:25:13;;;;;;;;;;;15.10;77.50;;;;;;4171878;28;19919;-88
2023/09/30 08:27:14;;;;;;;;;;;15.30;77.00;;;;;;4169548;28;20031;-90
2023/09/30 08:29:20;;;;;;;;;;;15.30;76.90;;;;;;4142547;28;19967;-88
2023/09/30 08:31:24;;;;;;;;;;;15.30;76.30;;;;;;4154152;28;19968;-90
2023/09/30 08:33:26;;;;;;;;;;;15.40;76.70;;;;;;4140730;28;20307;-90
2023/09/30 08:35:31;;;;;;;;;;;15.40;76.50;;;;;;4151181;28;19917;-88
2023/09/30 08:37:45;;;;;;;;;;;15.50;76.00;;;;;;4136618;28;19929;-90
2023/09/30 08:39:46;;;;;;;;;;;15.50;75.90;;;;;;4187379;28;19985;-89
2023/09/30 08:44:23;;;;;;;;;;;15.70;74.40;;;;;;4121184;28;19913;-89
2023/09/30 08:46:30;;;;;;;;;;;15.70;74.50;;;;;;4108051;28;19937;-90
2023/09/30 08:48:32;;;;;;;;;;;15.80;74.50;;;;;;4072712;29;19930;-87
2023/09/30 08:50:48;;;;;;;;;;;15.80;73.90;;;;;;4091424;28;19978;-90
2023/09/30 08:52:52;;;;;;;;;;;15.90;73.90;;;;;;4107865;28;20324;-90
2023/09/30 08:54:53;;;;;;;;;;;15.90;73.60;;;;;;4099440;28;19918;-86
2023/09/30 08:56:57;;;;;;;;;;;16.10;74.00;;;;;;4105351;28;20623;-88
2023/09/30 08:59:02;;;;;;;;;;;16.00;73.90;;;;;;4089640;28;19927;-89
2023/09/30 09:01:09;;;;;;;;;;;16.00;73.10;;;;;;4091455;28;19914;-89
2023/09/30 09:03:18;;;;;;;;;;;16.10;72.30;;;;;;4091736;28;19914;-89
2023/09/30 09:05:21;;;;;;;;;;;16.10;71.00;;;;;;4089923;28;19915;-87
2023/09/30 09:07:24;;;;;;;;;;;16.20;70.80;;;;;;4085686;28;19961;-89
2023/09/30 09:09:25;;;;;;;;;;;16.10;70.20;;;;;;4107376;28;19922;-89
2023/09/30 09:11:27;;;;;;;;;;;16.20;70.30;;;;;;4107304;28;19914;-90
2023/09/30 09:13:45;;;;;;;;;;;16.20;70.30;;;;;;4114094;28;19917;-88
2023/09/30 09:15:45;;;;;;;;;;;16.20;69.70;;;;;;4144152;28;20566;-87
2023/09/30 09:17:46;;;;;;;;;;;16.20;70.40;;;;;;4085815;29;20049;-87
2023/09/30 09:19:59;;;;;;;;;;;16.20;70.70;;;;;;4115976;28;19934;-88
2023/09/30 09:22:04;;;;;;;;;;;16.30;70.50;;;;;;4171388;28;19912;-89
2023/09/30 09:24:04;;;;;;;;;;;16.30;70.10;;;;;;4173207;28;19920;-88
2023/09/30 09:26:06;;;;;;;;;;;16.30;69.60;;;;;;4170192;28;19967;-87
2023/09/30 09:28:12;;;;;;;;;;;16.30;68.70;;;;;;4154684;28;20004;-87
2023/09/30 09:30:26;;;;;;;;;;;16.40;69.10;;;;;;4143207;28;20008;-87
2023/09/30 09:32:27;;;;;;;;;;;16.40;68.90;;;;;;4170213;28;19924;-89
2023/09/30 09:34:28;;;;;;;;;;;16.50;69.20;;;;;;4140422;28;19914;-88
2023/09/30 09:36:44;;;;;;;;;;;16.50;67.60;;;;;;4172517;28;19920;-88
2023/09/30 09:38:47;;;;;;;;;;;16.50;68.00;;;;;;4170673;28;20198;-88
2023/09/30 09:40:48;;;;;;;;;;;16.60;67.10;;;;;;4168001;28;21191;-87
2023/09/30 09:42:50;;;;;;;;;;;16.70;65.70;;;;;;4168442;28;20287;-86
2023/09/30 09:44:53;;;;;;;;;;;16.60;65.20;;;;;;4154560;28;19971;-87
2023/09/30 09:47:07;;;;;;;;;;;16.70;65.00;;;;;;4173288;28;19913;-88
2023/09/30 09:49:08;;;;;;;;;;;16.70;65.50;;;;;;4140175;28;20399;-89
2023/09/30 09:51:26;;;;;;;;;;;16.80;64.60;;;;;;4157817;28;20315;-87
2023/09/30 09:53:49;;;;;;;;;;;16.80;64.80;;;;;;4178925;28;19964;-87
2023/09/30 09:56:10;;;;;;;;;;;16.80;65.00;;;;;;4171329;28;19960;-87
2023/09/30 09:58:33;;;;;;;;;;;16.90;64.20;;;;;;4169252;28;19921;-89
2023/09/30 10:00:38;;;;;;;;;;;17.00;64.80;;;;;;4167896;28;20315;-87
2023/09/30 10:02:59;;;;;;;;;;;17.00;64.60;;;;;;4171104;28;19947;-89
2023/09/30 10:05:20;;;;;;;;;;;17.10;64.10;;;;;;4157131;28;19960;-87
2023/09/30 10:07:33;;;;;;;;;;;17.10;64.50;;;;;;4158492;28;19921;-87
2023/09/30 10:09:57;;;;;;;;;;;17.20;64.40;;;;;;4173501;28;19922;-87
2023/09/30 10:12:21;;;;;;;;;;;17.30;65.10;;;;;;4161531;28;19940;-87
2023/09/30 10:14:41;;;;;;;;;;;17.40;65.00;;;;;;4166505;28;19917;-87
2023/09/30 10:17:03;;;;;;;;;;;17.40;64.60;;;;;;4167744;28;20008;-86
2023/09/30 10:19:24;;;;;;;;;;;17.50;64.10;;;;;;4171130;28;19925;-87
2023/09/30 10:22:03;;;;;;;;;;;17.50;62.80;;;;;;4170167;28;20015;-87
2023/09/30 10:24:24;;;;;;;;;;;17.60;61.90;;;;;;4169954;28;19916;-87
2023/09/30 10:26:44;;;;;;;;;;;17.60;61.60;;;;;;4171148;28;19935;-88
2023/09/30 10:29:08;;;;;;;;;;;17.60;62.10;;;;;;4167900;28;19921;-86
2023/09/30 10:31:30;;;;;;;;;;;17.70;61.80;;;;;;4173983;28;19921;-87
2023/09/30 10:34:02;;;;;;;;;;;17.70;60.60;;;;;;4172013;28;19927;-88
2023/09/30 10:36:33;;;;;;;;;;;17.70;60.40;;;;;;4172876;28;19917;-89
2023/09/30 10:38:54;;;;;;;;;;;17.70;59.00;;;;;;4158698;28;20008;-86
2023/09/30 10:41:35;;;;;;;;;;;17.80;58.50;;;;;;4168350;28;19942;-87
2023/09/30 10:43:55;;;;;;;;;;;17.80;58.50;;;;;;4172163;28;19921;-86
2023/09/30 10:46:08;;;;;;;;;;;17.80;58.80;;;;;;4170825;28;20036;-89
2023/09/30 10:48:27;;;;;;;;;;;17.80;58.90;;;;;;4168537;28;19943;-88
2023/09/30 10:50:46;;;;;;;;;;;17.90;59.20;;;;;;4157784;28;19961;-91
2023/09/30 10:52:47;;;;;;;;;;;17.90;59.60;;;;;;4172220;28;19920;-86
2023/09/30 10:54:48;;;;;;;;;;;17.90;59.70;;;;;;4158298;28;20370;-87
2023/09/30 10:56:49;;;;;;;;;;;17.80;60.50;;;;;;4174778;28;19920;-87
2023/09/30 10:58:51;;;;;;;;;;;17.90;59.40;;;;;;4172541;28;19959;-86
2023/09/30 11:00:55;;;;;;;;;;;17.90;59.30;;;;;;4173026;28;19994;-86
2023/09/30 11:02:56;;;;;;;;;;;17.90;59.60;;;;;;4153414;28;19917;-87
2023/09/30 11:04:57;;;;;;;;;;;17.90;59.70;;;;;;4170016;28;19917;-88
2023/09/30 11:06:58;;;;;;;;;;;17.90;60.00;;;;;;4159015;28;19959;-88
2023/09/30 11:09:00;;;;;;;;;;;17.90;59.90;;;;;;4159497;28;19917;-88
2023/09/30 11:11:01;;;;;;;;;;;17.90;59.80;;;;;;4170592;28;19913;-87
2023/09/30 11:13:01;;;;;;;;;;;17.90;59.70;;;;;;4141485;28;19922;-88
2023/09/30 11:15:02;;;;;;;;;;;18.00;59.70;;;;;;4157785;28;20285;-88
2023/09/30 11:17:06;;;;;;;;;;;17.90;59.30;;;;;;4143368;28;19914;-87
2023/09/30 11:19:08;;;;;;;;;;;17.90;59.40;;;;;;4155253;28;19917;-88
2023/09/30 11:21:10;;;;;;;;;;;17.90;59.70;;;;;;4172066;28;20461;-87
2023/09/30 11:23:11;;;;;;;;;;;17.90;59.30;;;;;;4137097;28;19917;-89
2023/09/30 11:25:18;;;;;;;;;;;17.90;59.60;;;;;;4153537;28;20326;-89
2023/09/30 11:27:26;;;;;;;;;;;17.80;59.40;;;;;;4155202;28;19991;-86
2023/09/30 11:29:29;;;;;;;;;;;17.80;59.60;;;;;;4167322;28;19912;-89
2023/09/30 11:31:34;;;;;;;;;;;17.70;59.70;;;;;;4131628;28;19918;-88
2023/09/30 11:33:48;;;;;;;;;;;17.80;59.80;;;;;;4153769;28;20387;-88
2023/09/30 11:36:03;;;;;;;;;;;17.70;60.10;;;;;;4134450;28;19917;-90
2023/09/30 11:38:07;;;;;;;;;;;17.70;60.20;;;;;;4144122;28;20461;-89
2023/09/30 11:40:10;;;;;;;;;;;17.70;60.10;;;;;;4142551;28;19964;-88
2023/09/30 11:42:16;;;;;;;;;;;17.70;60.30;;;;;;4155337;28;19919;-89
2023/09/30 11:44:17;;;;;;;;;;;17.70;60.30;;;;;;4169556;28;19925;-90
2023/09/30 11:46:18;;;;;;;;;;;17.60;60.10;;;;;;4177966;28;19929;-90
2023/09/30 11:48:19;;;;;;;;;;;17.60;60.20;;;;;;4174049;28;19921;-88
2023/09/30 11:50:44;;;;;;;;;;;17.60;59.50;;;;;;4177070;28;20079;-86
2023/09/30 11:52:55;;;;;;;;;;;17.60;59.10;;;;;;4184335;28;19921;-88
2023/09/30 11:54:57;;;;;;;;;;;17.60;58.90;;;;;;4132587;28;20250;-87
2023/09/30 11:56:58;;;;;;;;;;;17.50;59.00;;;;;;4164893;28;19935;-89
2023/09/30 11:59:02;;;;;;;;;;;17.50;58.80;;;;;;4168415;28;19921;-87
2023/09/30 12:01:06;;;;;;;;;;;17.40;59.00;;;;;;4156443;28;19928;-89
2023/09/30 12:03:07;;;;;;;;;;;17.50;59.50;;;;;;4168018;28;19928;-89
2023/09/30 12:05:11;;;;;;;;;;;17.50;59.50;;;;;;4152672;28;19921;-90
2023/09/30 12:07:33;;;;;;;;;;;17.50;59.30;;;;;;4152997;28;19925;-91
2023/09/30 12:09:40;;;;;;;;;;;17.50;59.50;;;;;;4154990;28;20371;-89
2023/09/30 12:11:58;;;;;;;;;;;17.50;59.50;;;;;;4138031;28;19921;-90
2023/09/30 12:14:02;;;;;;;;;;;17.40;59.50;;;;;;4170730;28;19923;-88
2023/09/30 12:16:04;;;;;;;;;;;17.40;59.20;;;;;;4139182;28;20125;-89
2023/09/30 12:18:08;;;;;;;;;;;17.30;59.60;;;;;;4169722;28;20210;-88
2023/09/30 12:20:14;;;;;;;;;;;17.40;59.30;;;;;;4155431;28;19928;-88
2023/09/30 12:22:23;;;;;;;;;;;17.40;59.00;;;;;;4153269;28;19921;-90
2023/09/30 12:25:12;;;;;;;;;;;17.40;59.50;;;;;;4164451;28;20123;-89
2023/09/30 12:27:46;;;;;;;;;;;17.30;59.30;;;;;;4146381;28;19920;-89
2023/09/30 12:30:26;;;;;;;;;;;17.40;59.50;;;;;;4177532;28;19920;-88
2023/09/30 12:32:46;;;;;;;;;;;17.40;58.90;;;;;;4179014;28;19923;-89
2023/09/30 12:35:11;;;;;;;;;;;17.30;58.90;;;;;;4170270;28;19928;-91
2023/09/30 12:38:04;;;;;;;;;;;17.40;59.00;;;;;;4158745;28;19917;-90
2023/09/30 12:40:25;;;;;;;;;;;17.40;59.00;;;;;;4171827;28;19921;-88
2023/09/30 12:42:48;;;;;;;;;;;17.30;59.20;;;;;;4184724;28;19959;-88
2023/09/30 12:45:13;;;;;;;;;;;17.30;59.60;;;;;;4152981;28;19921;-88
2023/09/30 12:47:14;;;;;;;;;;;17.40;59.60;;;;;;4165962;28;19932;-89
2023/09/30 12:51:23;;;;;;;;;;;17.40;59.40;;;;;;4186452;28;19932;-88
2023/09/30 12:53:23;;;;;;;;;;;17.40;59.70;;;;;;4193597;28;19924;-89
2023/09/30 12:55:24;;;;;;;;;;;17.40;59.50;;;;;;4151989;28;19972;-89
2023/09/30 12:57:28;;;;;;;;;;;17.40;59.80;;;;;;4185458;28;20012;-89
2023/09/30 12:59:29;;;;;;;;;;;17.40;59.30;;;;;;4171927;28;19925;-89
2023/09/30 13:01:31;;;;;;;;;;;17.50;59.30;;;;;;4155195;28;20418;-88
2023/09/30 13:03:41;;;;;;;;;;;17.40;59.60;;;;;;4140911;28;19924;-90
2023/09/30 13:06:01;;;;;;;;;;;17.50;59.30;;;;;;4157226;28;19917;-91
2023/09/30 13:08:04;;;;;;;;;;;17.50;59.50;;;;;;4152375;28;19917;-86
2023/09/30 13:10:08;;;;;;;;;;;17.50;59.30;;;;;;4152632;28;19929;-90
2023/09/30 13:12:37;;;;;;;;;;;17.50;59.10;;;;;;4155800;28;20458;-89
2023/09/30 13:14:38;;;;;;;;;;;17.60;58.90;;;;;;4167890;28;19917;-88
2023/09/30 13:16:39;;;;;;;;;;;17.50;59.20;;;;;;4136738;28;19914;-89
2023/09/30 13:18:42;;;;;;;;;;;17.70;58.30;;;;;;4153289;28;19996;-87
2023/09/30 13:20:43;;;;;;;;;;;17.60;58.30;;;;;;4161443;28;19976;-87
2023/09/30 13:22:44;;;;;;;;;;;17.60;58.20;;;;;;4167598;28;19918;-88
2023/09/30 13:24:45;;;;;;;;;;;17.60;58.30;;;;;;4161554;28;19910;-88
2023/09/30 13:26:48;;;;;;;;;;;17.60;58.30;;;;;;4144050;28;19917;-89
2023/09/30 13:28:49;;;;;;;;;;;17.60;58.60;;;;;;4218819;22;19939;-88
2023/09/30 13:30:55;;;;;;;;;;;17.60;58.80;;;;;;4123233;28;20402;-87
2023/09/30 13:32:56;;;;;;;;;;;17.60;58.90;;;;;;4123070;28;19913;-88
2023/09/30 13:34:57;;;;;;;;;;;17.60;59.10;;;;;;4130341;28;19980;-87
2023/09/30 13:36:57;;;;;;;;;;;17.60;59.10;;;;;;4150009;28;19917;-87
2023/09/30 13:38:58;;;;;;;;;;;17.60;59.40;;;;;;4162136;28;20808;-87
2023/09/30 13:40:58;;;;;;;;;;;17.60;59.60;;;;;;4134648;28;19928;-87
2023/09/30 13:42:59;;;;;;;;;;;17.60;59.80;;;;;;4149583;28;19913;-87
2023/09/30 13:45:01;;;;;;;;;;;17.60;59.90;;;;;;4149741;28;19921;-88
2023/09/30 13:47:05;;;;;;;;;;;17.70;60.10;;;;;;4159282;28;19928;-91